createdAt,value
2019-01-23T00:00:31.884Z,98809.88
2019-01-23T00:03:00.564Z,98802.13
2019-01-23T00:05:29.259Z,98785.77
2019-01-23T00:07:58.111Z,98768.45
2019-01-23T00:10:26.799Z,98769.89
2019-01-23T00:12:55.474Z,98790.64
2019-01-23T00:15:24.230Z,98807.72
2019-01-23T00:17:52.894Z,98810.44
2019-01-23T00:20:21.565Z,98795.02
2019-01-23T00:22:50.336Z,98787.12
2019-01-23T00:25:19.017Z,98772.70
2019-01-23T00:27:47.701Z,98761.92
2019-01-23T00:30:17.360Z,98763.19
2019-01-23T00:32:46.068Z,98767.08
2019-01-23T00:35:14.865Z,98761.96
2019-01-23T00:37:43.683Z,98762.41
2019-01-23T00:40:16.746Z,98761.23
2019-01-23T00:42:45.411Z,98752.99
2019-01-23T00:45:16.254Z,98743.76
2019-01-23T00:47:45.042Z,98735.58
2019-01-23T00:50:15.076Z,98738.56
2019-01-23T00:52:44.317Z,98740.05
2019-01-23T00:55:15.750Z,98764.43
2019-01-23T00:57:44.443Z,98752.63
2019-01-23T01:00:27.662Z,98754.55
2019-01-23T01:02:56.634Z,98746.75
2019-01-23T01:05:25.313Z,98756.19
2019-01-23T01:07:54.082Z,98768.94
2019-01-23T01:10:22.768Z,98765.12
2019-01-23T01:12:51.454Z,98770.52
2019-01-23T01:15:20.388Z,98771.70
2019-01-23T01:17:49.079Z,98789.80
2019-01-23T01:20:17.858Z,98786.33
2019-01-23T01:22:46.886Z,98778.42
2019-01-23T01:25:17.464Z,98768.66
2019-01-23T01:27:47.575Z,98765.42
2019-01-23T01:30:21.538Z,98761.94
2019-01-23T01:32:50.227Z,98755.20
2019-01-23T01:35:18.893Z,98742.58
2019-01-23T01:37:48.128Z,98738.31
2019-01-23T01:40:18.996Z,98729.72
2019-01-23T01:42:47.800Z,98726.77
2019-01-23T01:45:17.612Z,98717.03
2019-01-23T01:47:46.393Z,98709.36
2019-01-23T01:50:17.443Z,98709.55
2019-01-23T01:52:46.315Z,98712.34
2019-01-23T01:55:15.095Z,98726.33
2019-01-23T01:57:43.972Z,98732.38
2019-01-23T02:00:18.482Z,98724.86
2019-01-23T02:02:47.160Z,98715.83
2019-01-23T02:05:15.930Z,98708.48
2019-01-23T02:07:45.037Z,98711.21
2019-01-23T02:10:19.236Z,98695.89
2019-01-23T02:12:48.407Z,98699.63
2019-01-23T02:15:17.852Z,98696.50
2019-01-23T02:17:46.576Z,98686.93
2019-01-23T02:20:24.830Z,98698.06
2019-01-23T02:22:53.615Z,98695.98
2019-01-23T02:25:22.391Z,98715.00
2019-01-23T02:27:51.222Z,98708.09
2019-01-23T02:30:21.907Z,98708.04
2019-01-23T02:32:50.587Z,98707.99
2019-01-23T02:35:19.444Z,98716.19
2019-01-23T02:37:48.117Z,98713.59
2019-01-23T02:40:21.229Z,98722.28
2019-01-23T02:42:49.969Z,98721.91
2019-01-23T02:45:19.227Z,98719.92
2019-01-23T02:47:48.601Z,98726.77
2019-01-23T02:50:17.548Z,98725.76
2019-01-23T02:52:46.220Z,98726.30
2019-01-23T02:55:14.898Z,98723.80
2019-01-23T02:57:43.712Z,98715.73
2019-01-23T03:00:20.002Z,98716.20
2019-01-23T03:02:50.106Z,98708.09
2019-01-23T03:05:19.587Z,98692.48
2019-01-23T03:07:48.258Z,98690.70
2019-01-23T03:10:19.104Z,98709.98
2019-01-23T03:12:47.985Z,98713.67
2019-01-23T03:15:17.672Z,98702.53
2019-01-23T03:17:46.405Z,98702.03
2019-01-23T03:20:17.009Z,98694.77
2019-01-23T03:22:45.762Z,98689.45
2019-01-23T03:25:15.675Z,98693.07
2019-01-23T03:27:44.467Z,98695.38
2019-01-23T03:30:18.948Z,98696.48
2019-01-23T03:32:48.161Z,98692.31
2019-01-23T03:35:16.834Z,98697.28
2019-01-23T03:37:45.519Z,98700.95
2019-01-23T03:40:16.678Z,98698.60
2019-01-23T03:42:45.363Z,98700.50
2019-01-23T03:45:15.656Z,98684.00
2019-01-23T03:47:44.754Z,98686.52
2019-01-23T03:50:15.937Z,98678.22
2019-01-23T03:52:44.622Z,98681.11
2019-01-23T03:55:15.023Z,98675.12
2019-01-23T03:57:43.705Z,98669.12
2019-01-23T04:00:18.507Z,98679.56
2019-01-23T04:02:47.919Z,98687.36
2019-01-23T04:05:16.805Z,98699.03
2019-01-23T04:07:46.551Z,98697.66
2019-01-23T04:10:17.252Z,98703.28
2019-01-23T04:12:46.023Z,98694.77
2019-01-23T04:15:18.829Z,98703.91
2019-01-23T04:17:48.086Z,98707.74
2019-01-23T04:20:21.014Z,98710.78
2019-01-23T04:22:49.899Z,98714.53
2019-01-23T04:25:18.735Z,98703.45
2019-01-23T04:27:47.426Z,98697.13
2019-01-23T04:30:24.031Z,98712.48
2019-01-23T04:32:52.707Z,98718.63
2019-01-23T04:35:21.377Z,98715.43
2019-01-23T04:37:50.188Z,98715.59
2019-01-23T04:40:18.982Z,98717.42
2019-01-23T04:42:47.648Z,98720.87
2019-01-23T04:45:17.908Z,98726.72
2019-01-23T04:47:46.585Z,98714.72
2019-01-23T04:50:16.869Z,98715.28
2019-01-23T04:53:02.641Z,98720.41
2019-01-23T04:55:32.223Z,98711.60
2019-01-23T04:58:00.907Z,98724.31
2019-01-23T05:00:31.636Z,98727.81
2019-01-23T05:03:00.309Z,98734.05
2019-01-23T05:05:28.985Z,98734.58
2019-01-23T05:07:57.788Z,98725.28
2019-01-23T05:10:26.476Z,98719.57
2019-01-23T05:12:55.152Z,98727.73
2019-01-23T05:15:23.874Z,98737.58
2019-01-23T05:17:52.543Z,98740.39
2019-01-23T05:20:21.224Z,98752.57
2019-01-23T05:22:49.966Z,98760.08
2019-01-23T05:25:18.635Z,98777.20
2019-01-23T05:27:52.829Z,98767.55
2019-01-23T05:30:23.650Z,98763.14
2019-01-23T05:32:52.334Z,98761.03
2019-01-23T05:35:21.114Z,98761.36
2019-01-23T05:37:49.880Z,98749.66
2019-01-23T05:40:18.658Z,98751.68
2019-01-23T05:42:47.988Z,98746.51
2019-01-23T05:45:16.722Z,98739.30
2019-01-23T05:47:45.513Z,98742.38
2019-01-23T05:50:16.937Z,98750.70
2019-01-23T05:52:47.897Z,98757.95
2019-01-23T05:55:16.580Z,98741.30
2019-01-23T05:57:45.265Z,98741.28
2019-01-23T06:00:16.740Z,98737.84
2019-01-23T06:02:45.418Z,98747.30
2019-01-23T06:05:14.502Z,98745.80
2019-01-23T06:07:43.230Z,98735.05
2019-01-23T06:10:12.211Z,98731.81
2019-01-23T06:12:40.889Z,98736.69
2019-01-23T06:15:12.112Z,98744.41
2019-01-23T06:17:40.801Z,98748.92
2019-01-23T06:20:18.647Z,98753.84
2019-01-23T06:22:47.416Z,98753.15
2019-01-23T06:25:16.107Z,98744.69
2019-01-23T06:27:44.947Z,98746.88
2019-01-23T06:30:19.129Z,98767.52
2019-01-23T06:32:48.005Z,98760.34
2019-01-23T06:35:16.758Z,98761.00
2019-01-23T06:37:45.461Z,98749.45
2019-01-23T06:40:16.644Z,98753.28
2019-01-23T06:42:45.442Z,98741.02
2019-01-23T06:45:15.920Z,98748.77
2019-01-23T06:47:44.794Z,98756.00
2019-01-23T06:50:16.207Z,98744.91
2019-01-23T06:52:44.987Z,98763.40
2019-01-23T06:55:14.070Z,98764.56
2019-01-23T06:57:43.465Z,98755.70
2019-01-23T07:00:17.264Z,98751.58
2019-01-23T07:02:45.660Z,98746.63
2019-01-23T07:05:14.512Z,98761.33
2019-01-23T07:07:43.183Z,98756.34
2019-01-23T07:10:14.782Z,98767.92
2019-01-23T07:12:43.496Z,98775.55
2019-01-23T07:15:12.771Z,98770.71
2019-01-23T07:17:41.452Z,98754.92
2019-01-23T07:20:13.451Z,98751.46
2019-01-23T07:22:42.136Z,98744.71
2019-01-23T07:25:11.115Z,98726.28
2019-01-23T07:27:45.754Z,98740.96
2019-01-23T07:30:29.186Z,98733.17
2019-01-23T07:32:57.907Z,98740.28
2019-01-23T07:35:26.586Z,98751.20
2019-01-23T07:37:55.261Z,98758.09
2019-01-23T07:40:24.098Z,98757.11
2019-01-23T07:42:52.787Z,98768.06
2019-01-23T07:45:23.967Z,98783.33
2019-01-23T07:47:54.793Z,98780.08
2019-01-23T07:50:23.465Z,98768.25
2019-01-23T07:52:52.242Z,98749.77
2019-01-23T07:55:21.780Z,98746.27
2019-01-23T07:57:50.460Z,98748.73
2019-01-23T08:00:21.447Z,98753.20
2019-01-23T08:02:50.675Z,98753.02
2019-01-23T08:05:21.987Z,98744.91
2019-01-23T08:07:50.787Z,98744.19
2019-01-23T08:10:20.496Z,98726.34
2019-01-23T08:12:49.354Z,98726.98
2019-01-23T08:15:20.763Z,98731.98
2019-01-23T08:17:49.668Z,98738.25
2019-01-23T08:20:21.324Z,98744.09
2019-01-23T08:22:49.994Z,98741.07
2019-01-23T08:25:19.546Z,98735.37
2019-01-23T08:27:48.224Z,98749.14
2019-01-23T08:30:19.321Z,98751.70
2019-01-23T08:32:48.179Z,98773.67
2019-01-23T08:35:17.062Z,98773.53
2019-01-23T08:37:45.828Z,98777.19
2019-01-23T08:40:16.572Z,98761.28
2019-01-23T08:42:45.349Z,98757.19
2019-01-23T08:45:14.927Z,98754.59
2019-01-23T08:47:43.870Z,98738.89
2019-01-23T08:50:27.461Z,98735.59
2019-01-23T08:52:56.213Z,98727.18
2019-01-23T08:55:24.899Z,98725.36
2019-01-23T08:57:53.584Z,98711.22
2019-01-23T09:00:22.408Z,98697.31
2019-01-23T09:02:51.094Z,98695.63
2019-01-23T09:05:19.782Z,98692.94
2019-01-23T09:07:49.585Z,98706.44
2019-01-23T09:10:27.677Z,98689.51
2019-01-23T09:12:56.443Z,98687.34
2019-01-23T09:15:25.222Z,98687.75
2019-01-23T09:17:53.898Z,98675.80
2019-01-23T09:20:23.438Z,98669.10
2019-01-23T09:22:52.106Z,98663.64
2019-01-23T09:25:25.936Z,98657.51
2019-01-23T09:27:54.758Z,98641.69
2019-01-23T09:30:45.285Z,98641.27
2019-01-23T09:33:35.421Z,98633.35
2019-01-23T09:36:11.195Z,98625.03
2019-01-23T09:38:54.912Z,98622.37
2019-01-23T09:41:40.833Z,98616.94
2019-01-23T09:44:22.035Z,98612.42
2019-01-23T09:47:02.735Z,98622.05
2019-01-23T09:49:37.324Z,98612.75
2019-01-23T09:52:14.889Z,98619.01
2019-01-23T09:54:43.736Z,98618.05
2019-01-23T09:57:12.425Z,98614.87
2019-01-23T09:59:41.114Z,98610.27
2019-01-23T10:02:10.182Z,98614.50
2019-01-23T10:04:38.856Z,98616.11
2019-01-23T10:07:07.561Z,98615.28
2019-01-23T10:09:36.661Z,98612.96
2019-01-23T10:12:05.651Z,98611.14
2019-01-23T10:14:34.319Z,98613.02
2019-01-23T10:17:03.362Z,98611.11
2019-01-23T10:19:32.031Z,98606.60
2019-01-23T10:22:00.719Z,98607.01
2019-01-23T10:24:35.713Z,98604.27
2019-01-23T10:27:00.094Z,98609.36
2019-01-23T10:29:28.867Z,98608.72
2019-01-23T10:31:57.699Z,98605.76
2019-01-23T10:34:26.374Z,98599.52
2019-01-23T10:36:55.054Z,98596.73
2019-01-23T10:39:23.910Z,98602.05
2019-01-23T10:41:52.599Z,98599.87
2019-01-23T10:44:21.283Z,98589.38
2019-01-23T10:46:50.115Z,98586.41
2019-01-23T10:49:18.792Z,98579.17
2019-01-23T10:51:47.468Z,98573.02
2019-01-23T10:54:16.210Z,98561.37
2019-01-23T10:56:44.887Z,98551.09
2019-01-23T10:59:13.568Z,98544.58
2019-01-23T11:01:42.341Z,98539.50
2019-01-23T11:04:11.025Z,98532.16
2019-01-23T11:06:39.704Z,98534.94
2019-01-23T11:09:08.648Z,98527.88
2019-01-23T11:11:37.356Z,98526.01
2019-01-23T11:14:06.040Z,98516.52
2019-01-23T11:16:34.798Z,98511.60
2019-01-23T11:19:03.480Z,98505.94
2019-01-23T11:21:32.167Z,98503.22
2019-01-23T11:24:00.887Z,98504.61
2019-01-23T11:26:29.563Z,98507.49
2019-01-23T11:28:58.254Z,98502.81
2019-01-23T11:31:27.066Z,98506.72
2019-01-23T11:33:55.747Z,98516.78
2019-01-23T11:36:24.423Z,98519.30
2019-01-23T11:38:53.255Z,98513.63
2019-01-23T11:41:21.933Z,98499.00
2019-01-23T11:43:50.622Z,98490.20
2019-01-23T11:46:19.390Z,98478.25
2019-01-23T11:48:48.070Z,98485.02
2019-01-23T11:51:16.850Z,98478.56
2019-01-23T11:53:45.698Z,98479.94
2019-01-23T11:56:14.395Z,98474.80
2019-01-23T11:58:43.055Z,98472.50
2019-01-23T12:01:11.893Z,98480.42
2019-01-23T12:03:40.585Z,98483.13
2019-01-23T12:06:09.252Z,98482.73
2019-01-23T12:08:38.066Z,98466.47
2019-01-23T12:11:06.742Z,98472.77
2019-01-23T12:13:35.430Z,98474.57
2019-01-23T12:16:04.696Z,98461.73
2019-01-23T12:18:33.385Z,98467.64
2019-01-23T12:21:02.059Z,98469.25
2019-01-23T12:23:31.366Z,98464.45
2019-01-23T12:26:00.035Z,98455.91
2019-01-23T12:28:28.708Z,98459.75
2019-01-23T12:30:57.440Z,98462.68
2019-01-23T12:33:26.113Z,98446.33
2019-01-23T12:35:54.778Z,98451.73
2019-01-23T12:38:23.543Z,98446.66
2019-01-23T12:40:52.237Z,98454.29
2019-01-23T12:43:20.904Z,98462.86
2019-01-23T12:45:50.068Z,98462.98
2019-01-23T12:48:18.752Z,98448.13
2019-01-23T12:50:47.434Z,98449.98
2019-01-23T12:53:16.467Z,98448.06
2019-01-23T12:55:45.135Z,98447.77
2019-01-23T12:58:13.806Z,98441.28
2019-01-23T13:00:42.757Z,98438.47
2019-01-23T13:03:11.454Z,98447.09
2019-01-23T13:05:40.142Z,98442.73
2019-01-23T13:08:08.967Z,98433.02
2019-01-23T13:10:37.650Z,98435.00
2019-01-23T13:13:06.377Z,98443.83
2019-01-23T13:15:35.225Z,98434.26
2019-01-23T13:18:04.014Z,98436.88
2019-01-23T13:20:32.722Z,98425.19
2019-01-23T13:23:01.635Z,98428.28
2019-01-23T13:25:30.620Z,98422.63
2019-01-23T13:28:01.200Z,98410.21
2019-01-23T13:30:30.042Z,98419.80
2019-01-23T13:32:58.706Z,98421.09
2019-01-23T13:35:30.090Z,98410.36
2019-01-23T13:37:58.999Z,98411.49
2019-01-23T13:40:32.972Z,98408.44
2019-01-23T13:43:01.748Z,98404.02
2019-01-23T13:45:30.728Z,98415.94
2019-01-23T13:47:59.511Z,98408.81
2019-01-23T13:50:28.189Z,98413.30
2019-01-23T13:52:57.444Z,98411.38
2019-01-23T13:55:26.323Z,98408.55
2019-01-23T13:57:54.997Z,98402.69
2019-01-23T14:00:29.499Z,98402.56
2019-01-23T14:02:58.279Z,98393.33
2019-01-23T14:05:26.962Z,98391.92
2019-01-23T14:07:55.796Z,98390.91
2019-01-23T14:10:24.683Z,98395.61
2019-01-23T14:12:53.554Z,98388.64
2019-01-23T14:15:27.802Z,98390.62
2019-01-23T14:17:56.478Z,98387.47
2019-01-23T14:20:26.288Z,98387.33
2019-01-23T14:22:55.131Z,98391.14
2019-01-23T14:25:23.820Z,98381.92
2019-01-23T14:27:52.507Z,98378.81
2019-01-23T14:30:27.748Z,98378.45
2019-01-23T14:32:56.531Z,98379.95
2019-01-23T14:35:25.220Z,98383.33
2019-01-23T14:38:00.575Z,98376.42
2019-01-23T14:40:24.697Z,98376.49
2019-01-23T14:42:53.384Z,98369.92
2019-01-23T14:45:22.320Z,98370.95
2019-01-23T14:47:51.009Z,98379.97
2019-01-23T14:50:20.991Z,98385.13
2019-01-23T14:52:50.423Z,98370.22
2019-01-23T14:55:19.119Z,98354.13
2019-01-23T14:57:48.003Z,98348.84
2019-01-23T15:00:28.557Z,98354.34
2019-01-23T15:02:57.237Z,98362.33
2019-01-23T15:05:26.001Z,98357.96
2019-01-23T15:07:55.138Z,98352.86
2019-01-23T15:10:33.647Z,98353.09
2019-01-23T15:13:02.842Z,98364.86
2019-01-23T15:15:31.516Z,98368.09
2019-01-23T15:18:00.197Z,98375.20
2019-01-23T15:20:37.402Z,98364.73
2019-01-23T15:23:06.290Z,98355.23
2019-01-23T15:25:35.277Z,98356.05
2019-01-23T15:28:04.390Z,98352.63
2019-01-23T15:30:33.071Z,98350.14
2019-01-23T15:33:01.760Z,98347.80
2019-01-23T15:35:30.583Z,98342.60
2019-01-23T15:37:59.261Z,98337.45
2019-01-23T15:40:32.971Z,98334.45
2019-01-23T15:43:01.695Z,98347.45
2019-01-23T15:45:30.380Z,98337.34
2019-01-23T15:47:59.065Z,98322.99
2019-01-23T15:50:28.691Z,98332.22
2019-01-23T15:52:57.381Z,98323.98
2019-01-23T15:55:26.366Z,98321.34
2019-01-23T15:57:56.096Z,98304.07
2019-01-23T16:00:30.535Z,98303.40
2019-01-23T16:02:59.311Z,98298.34
2019-01-23T16:05:28.084Z,98283.52
2019-01-23T16:07:56.769Z,98299.58
2019-01-23T16:10:27.240Z,98300.39
2019-01-23T16:12:56.168Z,98303.21
2019-01-23T16:15:27.221Z,98292.78
2019-01-23T16:17:57.516Z,98279.19
2019-01-23T16:20:26.624Z,98283.86
2019-01-23T16:22:55.509Z,98290.01
2019-01-23T16:25:24.180Z,98271.55
2019-01-23T16:27:52.943Z,98270.47
2019-01-23T16:30:24.671Z,98285.18
2019-01-23T16:32:53.465Z,98279.84
2019-01-23T16:35:22.396Z,98271.52
2019-01-23T16:37:51.184Z,98273.00
2019-01-23T16:40:19.869Z,98265.43
2019-01-23T16:42:48.818Z,98270.19
2019-01-23T16:45:21.663Z,98280.95
2019-01-23T16:47:50.347Z,98263.79
2019-01-23T16:50:27.379Z,98266.92
2019-01-23T16:52:56.054Z,98255.42
2019-01-23T16:55:24.937Z,98233.14
2019-01-23T16:57:54.547Z,98235.04
2019-01-23T17:00:25.806Z,98254.42
2019-01-23T17:02:54.820Z,98250.34
2019-01-23T17:05:29.653Z,98244.59
2019-01-23T17:08:00.148Z,98241.28
2019-01-23T17:10:29.229Z,98232.71
2019-01-23T17:12:58.136Z,98218.28
2019-01-23T17:15:26.922Z,98210.30
2019-01-23T17:17:55.608Z,98221.38
2019-01-23T17:20:33.541Z,98211.63
2019-01-23T17:23:02.275Z,98205.64
2019-01-23T17:25:30.960Z,98230.15
2019-01-23T17:28:00.044Z,98219.86
2019-01-23T17:30:28.822Z,98229.90
2019-01-23T17:32:57.508Z,98235.44
2019-01-23T17:35:26.489Z,98241.37
2019-01-23T17:37:55.156Z,98257.97
2019-01-23T17:40:25.057Z,98252.56
2019-01-23T17:42:53.876Z,98251.30
2019-01-23T17:45:30.975Z,98249.29
2019-01-23T17:48:00.314Z,98236.19
2019-01-23T17:50:29.095Z,98232.23
2019-01-23T17:52:57.787Z,98234.95
2019-01-23T17:55:32.299Z,98244.25
2019-01-23T17:58:00.984Z,98241.65
2019-01-23T18:00:32.805Z,98231.42
2019-01-23T18:03:01.569Z,98235.44
2019-01-23T18:05:30.249Z,98239.35
2019-01-23T18:07:58.986Z,98227.39
2019-01-23T18:10:27.669Z,98221.88
2019-01-23T18:12:56.452Z,98214.47
2019-01-23T18:15:31.269Z,98213.62
2019-01-23T18:17:59.953Z,98197.96
2019-01-23T18:20:29.834Z,98181.64
2019-01-23T18:22:58.989Z,98189.30
2019-01-23T18:25:27.870Z,98185.24
2019-01-23T18:27:56.556Z,98179.19
2019-01-23T18:30:28.245Z,98185.55
2019-01-23T18:33:00.171Z,98211.30
2019-01-23T18:35:31.054Z,98202.66
2019-01-23T18:38:02.701Z,98202.96
2019-01-23T18:40:56.242Z,98202.13
2019-01-23T18:43:53.756Z,98201.47
2019-01-23T18:46:52.720Z,98192.26
2019-01-23T18:49:59.311Z,98188.86
2019-01-23T18:52:27.993Z,98183.52
2019-01-23T18:54:56.682Z,98194.20
2019-01-23T18:57:32.894Z,98189.02
2019-01-23T19:00:01.586Z,98183.45
2019-01-23T19:02:30.380Z,98154.22
2019-01-23T19:04:59.106Z,98152.63
2019-01-23T19:07:33.706Z,98152.23
2019-01-23T19:10:02.378Z,98139.17
2019-01-23T19:12:31.301Z,98126.50
2019-01-23T19:15:01.406Z,98126.75
2019-01-23T19:17:30.086Z,98133.36
2019-01-23T19:19:58.867Z,98150.52
2019-01-23T19:22:27.548Z,98149.51
2019-01-23T19:24:56.240Z,98142.29
2019-01-23T19:27:28.612Z,98148.00
2019-01-23T19:29:57.307Z,98131.51
2019-01-23T19:32:26.041Z,98116.39
2019-01-23T19:34:54.903Z,98114.26
2019-01-23T19:37:23.617Z,98116.83
2019-01-23T19:39:52.318Z,98122.30
2019-01-23T19:42:21.476Z,98126.17
2019-01-23T19:47:53.146Z,98132.53
2019-01-23T19:50:21.984Z,98132.91
2019-01-23T19:52:50.686Z,98121.66
2019-01-23T19:55:19.867Z,98124.56
2019-01-23T19:57:48.670Z,98128.33
2019-01-23T20:00:23.092Z,98108.80
2019-01-23T20:02:51.768Z,98125.55
2019-01-23T20:05:26.099Z,98115.09
2019-01-23T20:07:55.043Z,98116.97
2019-01-23T20:10:32.020Z,98123.46
2019-01-23T20:13:04.287Z,98111.47
2019-01-23T20:15:32.976Z,98125.52
2019-01-23T20:18:19.672Z,98106.72
2019-01-23T20:20:48.640Z,98090.68
2019-01-23T20:23:18.142Z,98083.62
2019-01-23T20:25:47.180Z,98092.37
2019-01-23T20:28:25.297Z,98088.53
2019-01-23T20:30:56.108Z,98088.27
2019-01-23T20:33:28.214Z,98090.27
2019-01-23T20:36:03.958Z,98096.53
2019-01-23T20:38:33.982Z,98090.17
2019-01-23T20:41:02.689Z,98087.89
2019-01-23T20:43:31.597Z,98076.60
2019-01-23T20:46:00.300Z,98081.73
2019-01-23T20:48:30.627Z,98082.58
2019-01-23T20:51:01.750Z,98077.72
2019-01-23T20:53:30.483Z,98058.50
2019-01-23T20:55:59.163Z,98049.67
2019-01-23T20:58:27.907Z,98042.68
2019-01-23T21:00:56.586Z,98048.12
2019-01-23T21:03:25.276Z,98064.87
2019-01-23T21:05:54.380Z,98058.58
2019-01-23T21:08:23.139Z,98055.02
2019-01-23T21:10:59.312Z,98033.26
2019-01-23T21:13:28.367Z,98010.05
2019-01-23T21:15:57.049Z,98003.30
2019-01-23T21:18:36.154Z,97992.66
2019-01-23T21:21:04.937Z,97971.97
2019-01-23T21:23:33.631Z,97971.59
2019-01-23T21:26:02.557Z,97982.11
2019-01-23T21:28:31.233Z,97986.05
2019-01-23T21:31:00.058Z,97995.98
2019-01-23T21:33:29.180Z,97999.16
2019-01-23T21:35:57.872Z,97999.02
2019-01-23T21:38:26.552Z,97992.47
2019-01-23T21:40:55.634Z,97990.86
2019-01-23T21:43:24.329Z,97986.59
2019-01-23T21:45:53.080Z,97968.64
2019-01-23T21:48:21.898Z,97976.61
2019-01-23T21:50:50.590Z,97973.81
2019-01-23T21:53:19.250Z,97966.68
2019-01-23T21:55:49.088Z,97977.45
2019-01-23T21:58:17.770Z,97976.68
2019-01-23T22:00:46.549Z,97975.08
2019-01-23T22:03:15.817Z,97962.34
2019-01-23T22:05:44.492Z,97962.34
2019-01-23T22:08:14.520Z,97961.70
2019-01-23T22:10:43.385Z,97962.70
2019-01-23T22:13:12.135Z,97957.59
2019-01-23T22:15:40.799Z,97968.99
2019-01-23T22:18:09.602Z,97968.25
2019-01-23T22:20:38.284Z,97962.57
2019-01-23T22:23:06.965Z,97961.40
2019-01-23T22:25:35.808Z,97951.73
2019-01-23T22:28:04.894Z,97942.03
2019-01-23T22:30:34.775Z,97935.41
2019-01-23T22:33:04.137Z,97932.80
2019-01-23T22:35:32.807Z,97935.95
2019-01-23T22:38:01.478Z,97941.94
2019-01-23T22:40:30.261Z,97938.45
2019-01-23T22:42:58.898Z,97936.28
2019-01-23T22:45:27.569Z,97926.92
2019-01-23T22:47:56.365Z,97918.00
2019-01-23T22:50:26.839Z,97906.16
2019-01-23T22:52:55.506Z,97910.84
2019-01-23T22:55:24.323Z,97895.53
2019-01-23T22:57:53.008Z,97894.55
2019-01-23T23:00:24.927Z,97894.65
2019-01-23T23:02:53.949Z,97885.52
2019-01-23T23:05:22.617Z,97879.00
2019-01-23T23:07:51.280Z,97886.80
2019-01-23T23:10:20.434Z,97878.45
2019-01-23T23:12:49.098Z,97872.80
2019-01-23T23:15:17.868Z,97882.56
2019-01-23T23:17:46.941Z,97874.59
2019-01-23T23:20:15.913Z,97873.75
2019-01-23T23:22:44.585Z,97871.67
2019-01-23T23:25:14.139Z,97874.16
2019-01-23T23:27:42.813Z,97873.39
2019-01-23T23:30:14.395Z,97868.08
2019-01-23T23:32:43.306Z,97873.29
2019-01-23T23:35:12.877Z,97876.53
2019-01-23T23:37:41.554Z,97878.17
2019-01-23T23:40:12.791Z,97876.66
2019-01-23T23:42:41.456Z,97868.73
2019-01-23T23:45:12.694Z,97860.99
2019-01-23T23:47:41.516Z,97851.30
2019-01-23T23:50:18.244Z,97855.88
2019-01-23T23:52:47.143Z,97862.83
2019-01-23T23:55:16.512Z,97861.43
2019-01-23T23:57:45.775Z,97854.50
